Time;durP1;ratioP1;P1;durP2;ratioP2;P2;SDS_P1;SDS_P2;PMS_P1;PMS_P2;Temp;Humidity;BMP_temperature;BMP_pressure;BME280_temperature;BME280_humidity;BME280_pressure;Samples;Min_cycle;Max_cycle;Signal;HPM_P1;HPM_P2
2023/08/20 00:00:10;;;;;;;5.07;0.75;;;;;;;28.70;44.01;102112.78;5037342;28;20475;-72
2023/08/20 00:02:38;;;;;;;4.45;0.70;;;;;;;28.69;44.40;102124.53;5040495;28;20039;-72
2023/08/20 00:05:04;;;;;;;5.82;0.65;;;;;;;29.14;42.98;102125.06;5040646;28;20093;-72
2023/08/20 00:07:31;;;;;;;2.17;0.70;;;;;;;29.24;43.39;102122.59;5052030;28;20477;-73
2023/08/20 00:09:56;;;;;;;6.40;1.10;;;;;;;29.45;42.66;102122.94;5035893;28;20047;-73
2023/08/20 00:12:22;;;;;;;7.18;0.73;;;;;;;29.41;42.70;102140.28;5048864;28;20491;-73
2023/08/20 00:14:58;;;;;;;5.72;0.80;;;;;;;29.47;42.68;102139.88;5043714;28;20040;-72
2023/08/20 00:17:26;;;;;;;3.85;0.70;;;;;;;29.39;42.46;102131.47;5051823;28;20079;-72
2023/08/20 00:19:53;;;;;;;2.20;0.93;;;;;;;29.39;42.59;102121.56;5042860;28;20033;-72
2023/08/20 00:22:23;;;;;;;4.35;0.93;;;;;;;29.26;43.28;102121.56;5052718;28;20111;-73
2023/08/20 00:24:51;;;;;;;6.00;1.02;;;;;;;29.44;42.67;102113.13;5068276;28;20032;-72
2023/08/20 00:27:17;;;;;;;3.65;0.93;;;;;;;29.24;42.32;102117.22;5052455;28;20029;-72
2023/08/20 00:29:42;;;;;;;1.73;0.88;;;;;;;29.20;42.81;102132.72;5068118;28;20039;-72
2023/08/20 00:32:08;;;;;;;3.92;0.90;;;;;;;28.90;43.58;102141.06;5051938;28;20054;-72
2023/08/20 00:34:33;;;;;;;1.92;0.65;;;;;;;28.90;43.29;102149.97;5051303;28;20477;-73
2023/08/20 00:36:59;;;;;;;1.98;0.82;;;;;;;29.08;43.46;102147.84;5065714;28;20191;-72
2023/08/20 00:39:24;;;;;;;6.47;0.65;;;;;;;28.84;43.73;102160.28;5045688;28;20035;-74
2023/08/20 00:41:50;;;;;;;2.55;1.20;;;;;;;29.13;43.72;102158.31;5050646;28;20056;-72
2023/08/20 00:44:27;;;;;;;7.25;1.85;;;;;;;29.30;43.09;102164.41;5066207;28;20040;-72
2023/08/20 00:46:53;;;;;;;3.40;0.85;;;;;;;29.52;42.53;102180.78;5065722;28;20039;-72
2023/08/20 00:49:18;;;;;;;3.10;0.90;;;;;;;29.30;43.03;102180.56;5072249;28;20025;-72
2023/08/20 00:51:45;;;;;;;7.47;1.48;;;;;;;29.22;43.21;102183.75;5055819;28;20174;-73
2023/08/20 00:54:10;;;;;;;4.68;1.02;;;;;;;29.26;43.41;102180.78;5054851;28;20043;-72
2023/08/20 00:56:37;;;;;;;4.93;1.13;;;;;;;29.30;43.02;102176.03;5046034;28;20029;-72
2023/08/20 00:59:05;;;;;;;2.40;0.90;;;;;;;29.24;42.87;102174.63;5061718;28;20051;-72
2023/08/20 01:01:30;;;;;;;2.22;0.90;;;;;;;29.25;42.95;102168.28;5055650;28;20067;-72
2023/08/20 01:03:56;;;;;;;2.90;0.50;;;;;;;29.20;43.65;102162.31;5053984;28;20036;-72
2023/08/20 01:06:40;;;;;;;0.98;0.55;;;;;;;29.41;43.40;102175.28;5045303;28;20472;-73
2023/08/20 01:09:13;;;;;;;5.20;0.75;;;;;;;29.36;42.77;102175.63;5051046;28;20037;-72
2023/08/20 01:11:57;;;;;;;5.75;1.05;;;;;;;29.26;43.23;102175.41;5061993;28;20047;-73
2023/08/20 01:14:23;;;;;;;1.80;0.68;;;;;;;29.06;43.49;102171.34;5035102;28;20052;-72
2023/08/20 01:16:49;;;;;;;4.88;0.88;;;;;;;29.11;42.86;102184.47;5051381;28;20116;-72
2023/08/20 01:19:18;;;;;;;3.65;0.80;;;;;;;29.21;43.28;102177.50;5042217;28;20116;-73
2023/08/20 01:22:06;;;;;;;4.38;0.98;;;;;;;29.03;44.13;102184.13;5049672;28;20128;-73
2023/08/20 01:25:22;;;;;;;1.23;0.80;;;;;;;29.26;43.21;102179.91;5055573;28;20024;-72
2023/08/20 01:28:04;;;;;;;9.85;0.95;;;;;;;29.25;43.67;102183.56;5017124;28;20048;-71
2023/08/20 01:30:31;;;;;;;4.32;1.33;;;;;;;29.27;43.69;102181.63;5035581;28;20024;-72
2023/08/20 01:32:57;;;;;;;3.55;0.93;;;;;;;29.05;44.05;102184.91;5035052;28;20037;-72
2023/08/20 01:35:26;;;;;;;1.02;0.60;;;;;;;29.01;44.39;102180.69;5035977;28;20037;-73
2023/08/20 01:37:51;;;;;;;6.30;0.85;;;;;;;29.01;44.13;102189.63;5050264;28;20024;-73
2023/08/20 01:40:17;;;;;;;2.90;1.20;;;;;;;29.05;43.99;102187.59;5064911;28;20036;-72
2023/08/20 01:42:42;;;;;;;2.22;0.70;;;;;;;29.04;43.52;102185.84;5043628;28;20507;-73
2023/08/20 01:45:08;;;;;;;4.13;1.08;;;;;;;28.96;44.06;102188.19;5055338;28;20021;-72
2023/08/20 01:47:37;;;;;;;1.52;0.70;;;;;;;28.69;44.76;102197.16;5064992;28;20166;-72
2023/08/20 01:50:03;;;;;;;3.63;0.70;;;;;;;28.68;44.70;102190.03;5037858;28;20021;-72
2023/08/20 01:52:29;;;;;;;3.17;1.00;;;;;;;28.81;44.59;102196.34;5051347;28;20036;-72
2023/08/20 01:54:54;;;;;;;7.45;0.85;;;;;;;28.61;44.49;102185.03;5056689;28;20337;-72
2023/08/20 01:57:20;;;;;;;4.90;0.75;;;;;;;28.65;44.43;102185.72;5061497;28;20036;-72
2023/08/20 01:59:47;;;;;;;6.25;0.90;;;;;;;28.58;44.91;102179.84;5068014;28;20044;-72
2023/08/20 02:02:12;;;;;;;3.97;1.05;;;;;;;28.39;45.17;102180.19;5044733;28;20495;-72
2023/08/20 02:04:37;;;;;;;4.25;1.00;;;;;;;28.57;44.59;102188.88;5052067;28;20056;-72
2023/08/20 02:07:03;;;;;;;5.35;1.02;;;;;;;28.29;45.28;102184.44;5046864;28;20111;-72
2023/08/20 02:09:28;;;;;;;2.05;0.70;;;;;;;28.31;45.63;102184.34;5054327;28;20032;-72
2023/08/20 02:11:54;;;;;;;3.92;1.08;;;;;;;28.39;45.13;102174.81;5053444;28;20359;-72
2023/08/20 02:14:19;;;;;;;1.95;0.90;;;;;;;28.21;45.62;102166.09;5053723;28;20059;-73
2023/08/20 02:16:46;;;;;;;4.35;1.67;;;;;;;28.24;45.27;102168.59;5052134;28;20021;-73
2023/08/20 02:19:11;;;;;;;2.97;0.90;;;;;;;27.39;47.48;102162.22;5051709;28;20086;-73
2023/08/20 02:21:37;;;;;;;3.50;1.23;;;;;;;27.56;47.44;102171.94;5052998;28;20032;-72
2023/08/20 02:24:03;;;;;;;4.70;1.08;;;;;;;27.44;47.54;102170.88;5067928;28;20035;-73
2023/08/20 02:26:28;;;;;;;7.43;1.30;;;;;;;27.76;46.55;102170.72;5043177;28;20119;-72
2023/08/20 02:28:54;;;;;;;4.72;1.10;;;;;;;27.42;47.46;102178.13;5053948;28;20222;-73
2023/08/20 02:31:19;;;;;;;4.13;1.05;;;;;;;27.62;46.87;102186.81;5071745;28;20433;-73
2023/08/20 02:33:45;;;;;;;2.33;1.13;;;;;;;27.77;46.81;102175.97;5054027;28;20027;-73
2023/08/20 02:36:11;;;;;;;1.98;1.00;;;;;;;27.26;47.66;102184.41;5072286;28;20107;-73
2023/08/20 02:38:36;;;;;;;3.15;0.70;;;;;;;27.35;47.57;102176.75;5062310;28;20425;-73
2023/08/20 02:41:02;;;;;;;8.98;1.02;;;;;;;27.77;46.28;102177.81;5072153;28;20036;-72
2023/08/20 02:43:28;;;;;;;2.45;0.60;;;;;;;27.18;47.63;102181.31;5053840;28;20028;-73
2023/08/20 02:45:54;;;;;;;4.07;1.05;;;;;;;26.91;48.05;102179.31;5052895;28;20106;-72
2023/08/20 02:48:20;;;;;;;1.58;0.55;;;;;;;27.07;47.54;102181.09;5042780;28;20029;-73
2023/08/20 02:50:45;;;;;;;3.63;0.80;;;;;;;27.35;46.82;102171.38;5033626;28;20067;-73
2023/08/20 02:53:11;;;;;;;2.22;1.00;;;;;;;27.33;47.15;102184.06;5053638;28;20765;-73
2023/08/20 02:55:36;;;;;;;5.88;0.90;;;;;;;27.03;47.58;102190.28;5053539;28;20205;-73
2023/08/20 02:58:03;;;;;;;2.85;1.10;;;;;;;27.44;46.52;102192.34;5053127;28;20051;-73
2023/08/20 03:00:29;;;;;;;1.70;0.80;;;;;;;27.50;46.59;102197.34;5070169;28;20119;-73
2023/08/20 03:02:56;;;;;;;2.45;0.90;;;;;;;27.19;47.12;102209.88;5077717;28;20316;-73
2023/08/20 03:05:22;;;;;;;3.75;1.17;;;;;;;27.36;46.82;102213.41;5090850;28;20032;-71
2023/08/20 03:07:47;;;;;;;6.25;1.10;;;;;;;27.35;47.03;102208.97;5083437;28;20085;-73
2023/08/20 03:10:12;;;;;;;2.85;0.95;;;;;;;27.69;46.03;102217.72;5087190;28;20036;-72
2023/08/20 03:12:38;;;;;;;3.83;1.08;;;;;;;27.34;46.83;102208.13;5089422;28;20039;-72
2023/08/20 03:15:03;;;;;;;1.85;0.80;;;;;;;27.41;47.14;102214.03;5090904;28;20027;-73
2023/08/20 03:17:29;;;;;;;0.95;0.88;;;;;;;27.40;46.84;102209.59;5090692;28;20020;-73
2023/08/20 03:19:56;;;;;;;3.50;1.00;;;;;;;26.81;48.39;102210.28;5085841;28;20036;-73
2023/08/20 03:22:22;;;;;;;5.57;1.20;;;;;;;26.97;47.82;102204.91;5082972;28;20059;-72
2023/08/20 03:24:47;;;;;;;2.22;1.02;;;;;;;27.21;47.33;102207.09;5089450;28;20468;-73
2023/08/20 03:27:13;;;;;;;1.95;0.88;;;;;;;27.07;47.66;102205.25;5080978;28;20032;-72
2023/08/20 03:29:38;;;;;;;4.65;1.10;;;;;;;27.07;47.95;102205.25;5075071;28;20016;-72
2023/08/20 03:32:04;;;;;;;2.15;0.63;;;;;;;27.06;47.91;102208.88;5072169;28;20036;-73
2023/08/20 03:34:29;;;;;;;4.43;0.98;;;;;;;26.97;48.03;102206.72;5069077;28;20028;-73
2023/08/20 03:36:55;;;;;;;3.38;0.90;;;;;;;27.10;47.27;102205.06;5083060;28;20028;-71
2023/08/20 03:39:21;;;;;;;3.80;0.82;;;;;;;27.18;47.72;102202.78;5081933;28;20479;-73
2023/08/20 03:41:46;;;;;;;1.63;0.77;;;;;;;26.93;48.00;102211.41;5088570;28;20104;-73
2023/08/20 03:44:11;;;;;;;1.63;0.75;;;;;;;27.11;47.58;102212.16;5088978;28;20024;-72
2023/08/20 03:46:37;;;;;;;4.75;1.10;;;;;;;26.93;47.57;102206.06;5081945;28;20040;-72
2023/08/20 03:49:02;;;;;;;3.38;0.75;;;;;;;26.88;47.91;102211.66;5082694;28;20080;-73
2023/08/20 03:51:28;;;;;;;1.55;1.00;;;;;;;26.92;47.93;102205.16;5082414;28;20028;-72
2023/08/20 03:53:53;;;;;;;5.43;1.00;;;;;;;26.87;47.97;102204.59;5088243;28;20027;-72
2023/08/20 03:56:19;;;;;;;3.63;0.80;;;;;;;27.07;47.63;102202.56;5088392;28;20400;-72
2023/08/20 03:58:44;;;;;;;3.05;1.60;;;;;;;27.05;47.55;102196.41;5065795;28;20472;-72
2023/08/20 04:01:09;;;;;;;4.38;0.60;;;;;;;27.24;46.95;102202.44;5036731;28;20036;-73
2023/08/20 04:03:35;;;;;;;4.85;0.90;;;;;;;27.13;47.25;102202.19;5049199;28;20119;-71
2023/08/20 04:06:00;;;;;;;2.58;0.93;;;;;;;26.81;48.17;102199.56;5060680;28;20037;-74
2023/08/20 04:08:26;;;;;;;3.17;0.80;;;;;;;26.55;48.64;102207.22;5033438;28;20035;-74
2023/08/20 04:10:52;;;;;;;2.78;1.13;;;;;;;26.68;48.49;102203.84;5039434;28;20480;-73
2023/08/20 04:13:18;;;;;;;2.60;1.08;;;;;;;26.51;49.11;102212.88;5051278;28;20029;-72
2023/08/20 04:15:44;;;;;;;5.22;0.90;;;;;;;26.75;48.11;102219.56;5051809;28;20017;-72
2023/08/20 04:18:09;;;;;;;3.60;0.90;;;;;;;27.03;47.24;102226.00;5050860;28;20515;-72
2023/08/20 04:20:38;;;;;;;1.92;1.00;;;;;;;26.78;48.14;102226.56;5052111;28;20024;-72
2023/08/20 04:23:03;;;;;;;5.93;1.98;;;;;;;26.42;48.87;102228.50;5042418;28;20119;-72
2023/08/20 04:25:29;;;;;;;2.58;1.15;;;;;;;26.77;47.90;102240.06;5038906;28;20127;-73
2023/08/20 04:27:54;;;;;;;6.32;1.25;;;;;;;26.46;48.80;102242.63;5049740;28;20029;-73
2023/08/20 04:30:20;;;;;;;3.63;1.00;;;;;;;26.30;48.66;102241.72;5051717;28;20648;-72
2023/08/20 04:32:45;;;;;;;3.55;1.15;;;;;;;26.27;48.90;102247.22;5051971;28;20575;-73
2023/08/20 04:35:11;;;;;;;4.05;1.08;;;;;;;26.11;48.92;102248.06;5034090;28;20024;-73
2023/08/20 04:37:36;;;;;;;0.98;0.75;;;;;;;26.25;48.51;102250.00;5031267;28;20017;-72
2023/08/20 04:40:04;;;;;;;2.80;1.25;;;;;;;26.11;49.08;102258.78;5034510;28;20146;-72
2023/08/20 04:42:31;;;;;;;0.80;0.80;;;;;;;26.29;48.25;102253.41;5044154;28;20040;-73
2023/08/20 04:44:56;;;;;;;2.75;1.40;;;;;;;26.19;48.57;102251.22;5038097;28;20373;-72
2023/08/20 04:47:22;;;;;;;5.50;1.33;;;;;;;26.43;48.03;102258.84;5051320;28;20021;-72
2023/08/20 04:49:47;;;;;;;2.30;0.80;;;;;;;25.94;49.38;102256.09;5051238;28;20476;-72
2023/08/20 04:52:13;;;;;;;5.65;1.08;;;;;;;25.86;50.00;102254.69;5035707;28;20028;-72
2023/08/20 04:54:38;;;;;;;1.35;0.65;;;;;;;26.03;49.63;102255.66;5058890;28;20030;-73
2023/08/20 04:57:04;;;;;;;3.03;1.00;;;;;;;26.10;49.11;102250.84;5070577;28;20020;-73
2023/08/20 04:59:29;;;;;;;2.95;0.90;;;;;;;26.19;48.81;102251.22;5052661;28;20127;-72
2023/08/20 05:01:55;;;;;;;6.78;1.65;;;;;;;26.26;48.45;102253.56;5057654;28;20021;-72
2023/08/20 05:04:20;;;;;;;5.10;1.05;;;;;;;26.27;48.70;102257.97;5052158;28;20051;-72
2023/08/20 05:06:45;;;;;;;2.83;0.75;;;;;;;26.02;49.63;102264.63;5047914;28;20044;-72
2023/08/20 05:09:11;;;;;;;1.60;0.95;;;;;;;25.83;50.44;102254.88;5036135;28;20100;-72
2023/08/20 05:11:37;;;;;;;4.40;1.10;;;;;;;25.92;50.19;102256.19;5054862;28;20085;-72
2023/08/20 05:14:03;;;;;;;3.58;1.40;;;;;;;26.07;50.01;102257.22;5049428;28;20113;-72
2023/08/20 05:16:28;;;;;;;3.42;1.15;;;;;;;26.06;50.19;102260.84;5064279;28;20036;-72
2023/08/20 05:18:54;;;;;;;6.22;1.02;;;;;;;25.73;50.60;102259.84;5069126;28;20435;-72
2023/08/20 05:21:19;;;;;;;4.63;1.70;;;;;;;25.96;50.21;102259.59;5068881;28;20034;-72
2023/08/20 05:23:45;;;;;;;5.55;1.42;;;;;;;26.17;49.65;102258.47;5051139;28;20204;-72
2023/08/20 05:26:10;;;;;;;3.70;1.50;;;;;;;26.13;50.22;102262.28;5069457;28;20056;-72
2023/08/20 05:28:36;;;;;;;3.10;1.45;;;;;;;26.12;50.25;102265.00;5050487;28;20024;-72
2023/08/20 05:31:01;;;;;;;11.23;1.70;;;;;;;26.10;50.03;102258.88;5062398;28;20057;-72
2023/08/20 05:33:27;;;;;;;3.88;0.95;;;;;;;26.14;50.03;102269.34;5034616;28;20024;-72
2023/08/20 05:35:52;;;;;;;5.63;1.50;;;;;;;25.95;51.04;102268.56;5052584;28;20490;-73
2023/08/20 05:38:18;;;;;;;1.98;1.33;;;;;;;26.13;50.65;102256.03;5073533;28;20028;-72
2023/08/20 05:40:44;;;;;;;11.35;1.30;;;;;;;26.11;50.71;102253.44;5041386;28;20092;-73
2023/08/20 05:43:09;;;;;;;2.65;1.20;;;;;;;26.11;50.88;102264.16;5053112;28;20043;-72
2023/08/20 05:45:38;;;;;;;4.75;1.40;;;;;;;26.42;49.95;102262.50;5034767;28;20496;-71
2023/08/20 05:48:03;;;;;;;9.68;1.83;;;;;;;26.22;50.65;102259.06;5053945;28;20028;-72
2023/08/20 05:50:29;;;;;;;3.10;1.70;;;;;;;25.85;51.46;102258.31;5054763;28;20361;-72
2023/08/20 05:52:54;;;;;;;5.35;1.73;;;;;;;26.28;50.56;102248.97;5053085;28;20025;-72
2023/08/20 05:55:20;;;;;;;2.05;1.17;;;;;;;25.97;50.96;102269.34;5046678;28;20058;-72
2023/08/20 05:57:45;;;;;;;3.05;1.45;;;;;;;25.94;51.87;102261.47;5058991;28;20045;-72
2023/08/20 06:00:11;;;;;;;2.05;1.40;;;;;;;25.85;51.69;102266.34;5072061;28;20024;-72
2023/08/20 06:02:37;;;;;;;3.42;1.45;;;;;;;26.01;51.62;102268.25;5054102;28;20472;-72
2023/08/20 06:05:06;;;;;;;3.15;1.40;;;;;;;26.33;50.83;102258.50;5054962;28;20369;-72
2023/08/20 06:07:31;;;;;;;6.43;1.45;;;;;;;26.29;51.45;102261.44;5045604;28;20040;-72
2023/08/20 06:09:57;;;;;;;3.78;1.45;;;;;;;26.50;51.09;102265.63;5052250;28;20032;-73
2023/08/20 06:12:23;;;;;;;2.95;1.90;;;;;;;26.68;50.58;102262.84;5068666;28;20559;-72
2023/08/20 06:14:49;;;;;;;5.22;1.52;;;;;;;26.81;50.46;102269.28;5072109;28;20070;-72
2023/08/20 06:17:14;;;;;;;4.47;1.90;;;;;;;26.27;52.66;102263.31;5048789;28;20104;-72
2023/08/20 06:19:40;;;;;;;3.00;1.75;;;;;;;26.07;53.28;102273.28;5043848;28;20051;-72
2023/08/20 06:22:05;;;;;;;5.65;1.73;;;;;;;25.98;53.91;102273.75;5071466;28;20112;-72
2023/08/20 06:24:31;;;;;;;2.88;2.10;;;;;;;26.19;53.80;102272.63;5068423;28;20033;-72
2023/08/20 06:26:56;;;;;;;3.33;1.58;;;;;;;25.74;54.98;102268.72;5042656;28;20032;-72
2023/08/20 06:29:21;;;;;;;1.65;1.42;;;;;;;26.01;54.98;102262.88;5053334;28;20119;-72
2023/08/20 06:31:48;;;;;;;1.83;1.45;;;;;;;26.30;54.31;102268.53;5064173;28;20059;-73
2023/08/20 06:34:13;;;;;;;4.82;1.65;;;;;;;26.31;54.20;102271.13;5045553;28;20025;-72
2023/08/20 06:36:39;;;;;;;9.30;1.90;;;;;;;26.31;54.14;102262.19;5046480;28;20409;-74
2023/08/20 06:39:05;;;;;;;6.80;1.60;;;;;;;26.85;52.87;102270.84;5053588;28;20055;-72
2023/08/20 06:41:30;;;;;;;4.18;1.40;;;;;;;26.52;53.82;102274.44;5053979;28;20023;-72
2023/08/20 06:43:55;;;;;;;3.38;1.60;;;;;;;26.37;54.26;102270.78;5048194;28;20040;-72
2023/08/20 06:46:21;;;;;;;7.63;1.70;;;;;;;26.40;54.38;102270.59;5035402;28;20033;-72
2023/08/20 06:48:46;;;;;;;1.77;1.50;;;;;;;26.31;54.67;102264.88;5046207;28;20036;-72
2023/08/20 06:51:15;;;;;;;5.00;1.45;;;;;;;26.46;53.98;102264.06;5047531;28;20504;-72
2023/08/20 06:53:41;;;;;;;5.90;1.42;;;;;;;26.83;52.62;102275.47;5052548;28;20028;-73
2023/08/20 06:56:08;;;;;;;6.80;1.55;;;;;;;27.19;51.52;102279.66;5054139;28;20062;-72
2023/08/20 06:58:38;;;;;;;3.90;1.67;;;;;;;27.12;51.83;102282.78;5068930;28;20090;-72
2023/08/20 07:01:07;;;;;;;8.80;1.23;;;;;;;26.89;52.56;102288.50;5091012;28;20051;-72
2023/08/20 07:03:40;;;;;;;4.78;1.20;;;;;;;27.05;52.27;102287.63;5088328;28;20035;-72
2023/08/20 07:06:09;;;;;;;8.13;2.38;;;;;;;26.65;53.61;102295.22;5084769;28;20036;-72
2023/08/20 07:08:38;;;;;;;7.32;1.58;;;;;;;27.20;52.13;102292.13;5069542;28;20554;-73
2023/08/20 07:11:04;;;;;;;5.15;1.65;;;;;;;27.77;50.55;102298.69;5086067;28;20024;-72
2023/08/20 07:13:29;;;;;;;2.65;1.42;;;;;;;27.53;50.92;102287.56;5090976;28;20070;-72
2023/08/20 07:15:55;;;;;;;3.90;1.52;;;;;;;27.64;50.06;102295.00;5090414;28;20030;-72
2023/08/20 07:18:20;;;;;;;10.15;1.40;;;;;;;27.73;49.97;102305.19;5087424;28;20484;-73
2023/08/20 07:20:46;;;;;;;6.93;1.92;;;;;;;28.19;49.02;102313.19;5088386;28;20491;-72
2023/08/20 07:23:11;;;;;;;7.80;1.08;;;;;;;30.43;44.09;102306.50;5090209;28;20024;-71
2023/08/20 07:25:38;;;;;;;1.90;0.70;;;;;;;32.19;40.01;102300.63;5089291;28;20032;-72
2023/08/20 07:28:08;;;;;;;9.25;1.00;;;;;;;32.93;37.62;102310.91;5088066;28;20024;-73
2023/08/20 07:30:35;;;;;;;4.03;0.88;;;;;;;34.14;35.76;102311.56;5083655;28;20430;-72
2023/08/20 07:33:02;;;;;;;2.80;0.80;;;;;;;34.62;34.49;102313.66;5080013;28;20028;-72
2023/08/20 07:35:27;;;;;;;2.03;0.85;;;;;;;35.89;33.78;102315.63;5080055;28;20039;-73
2023/08/20 07:37:53;;;;;;;4.93;0.93;;;;;;;35.96;32.60;102319.47;5070425;28;20025;-72
2023/08/20 07:40:19;;;;;;;5.70;0.70;;;;;;;36.75;31.83;102319.13;5070015;28;20024;-73
2023/08/20 07:42:44;;;;;;;5.30;0.88;;;;;;;36.07;30.41;102320.31;5071422;28;20033;-72
2023/08/20 07:45:10;;;;;;;4.75;0.50;;;;;;;35.93;30.31;102314.31;5084485;28;20064;-73
2023/08/20 07:47:37;;;;;;;3.28;0.60;;;;;;;36.50;28.68;102316.97;5070270;28;20107;-73
2023/08/20 07:50:03;;;;;;;0.82;0.30;;;;;;;36.36;29.94;102327.53;5090917;28;20024;-73
2023/08/20 07:52:30;;;;;;;5.40;1.00;;;;;;;36.65;28.83;102324.63;5081196;28;20032;-73
2023/08/20 07:54:55;;;;;;;3.15;0.50;;;;;;;36.15;29.71;102331.31;5084525;28;20024;-73
2023/08/20 07:57:21;;;;;;;2.22;0.70;;;;;;;38.20;29.06;102331.66;5089528;28;20028;-73
2023/08/20 07:59:47;;;;;;;2.20;0.52;;;;;;;37.41;28.61;102326.13;5053325;28;20045;-72
2023/08/20 08:02:12;;;;;;;1.38;0.50;;;;;;;36.13;29.84;102330.56;5030246;28;20502;-71
2023/08/20 08:04:38;;;;;;;3.47;0.60;;;;;;;36.96;28.68;102322.47;5059479;28;20058;-72
2023/08/20 08:07:03;;;;;;;1.00;0.50;;;;;;;36.95;27.71;102334.38;5038862;28;20021;-73
2023/08/20 08:09:32;;;;;;;3.00;0.70;;;;;;;37.24;27.79;102336.00;5050156;28;20024;-72
2023/08/20 08:11:58;;;;;;;2.22;0.60;;;;;;;36.05;29.59;102336.75;5069856;28;20024;-71
2023/08/20 08:14:25;;;;;;;2.88;0.55;;;;;;;36.16;28.72;102338.44;5050685;28;20090;-71
2023/08/20 08:16:50;;;;;;;1.95;0.52;;;;;;;36.28;29.40;102339.13;5050284;28;20025;-71
2023/08/20 08:19:17;;;;;;;5.55;0.65;;;;;;;36.23;30.78;102338.69;5065954;28;20488;-71
2023/08/20 08:21:43;;;;;;;4.07;0.90;;;;;;;37.03;29.38;102332.72;5050457;28;20077;-72
2023/08/20 08:24:09;;;;;;;2.17;0.52;;;;;;;35.44;29.74;102343.41;5050586;28;20025;-72
2023/08/20 08:26:35;;;;;;;3.40;1.15;;;;;;;37.00;29.37;102340.22;5049500;28;20036;-71
2023/08/20 08:29:05;;;;;;;3.33;0.75;;;;;;;37.85;27.67;102338.94;5051866;28;20032;-72
2023/08/20 08:31:31;;;;;;;1.50;0.52;;;;;;;37.89;28.65;102345.78;5049230;28;20036;-71
2023/08/20 08:33:56;;;;;;;2.92;0.52;;;;;;;37.62;28.67;102339.44;5040304;28;20021;-72
2023/08/20 08:36:24;;;;;;;1.58;0.60;;;;;;;36.17;29.36;102337.44;5031219;28;20017;-71
2023/08/20 08:38:50;;;;;;;1.67;0.60;;;;;;;37.97;26.83;102345.84;5031452;28;20060;-72
2023/08/20 08:41:15;;;;;;;0.98;0.50;;;;;;;37.55;26.97;102348.41;5050830;28;20028;-72
2023/08/20 08:43:41;;;;;;;1.90;1.10;;;;;;;36.92;27.28;102340.13;5048496;28;20093;-72
2023/08/20 08:46:16;;;;;;;4.90;0.82;;;;;;;37.78;26.82;102343.31;5068327;28;20405;-73
2023/08/20 08:48:46;;;;;;;2.97;0.90;;;;;;;38.28;26.33;102348.09;5050104;28;20032;-72
2023/08/20 08:51:13;;;;;;;1.63;0.60;;;;;;;38.28;27.41;102350.84;5063758;28;20029;-72
2023/08/20 08:53:38;;;;;;;1.90;0.50;;;;;;;37.59;26.59;102350.66;5040150;28;20017;-73
2023/08/20 08:56:05;;;;;;;3.08;0.57;;;;;;;37.80;26.68;102349.50;5049610;28;20360;-72
2023/08/20 08:58:32;;;;;;;2.20;0.80;;;;;;;37.12;27.38;102349.00;5065469;28;20052;-72
2023/08/20 09:00:57;;;;;;;3.88;0.60;;;;;;;36.48;27.25;102346.22;5085709;28;20510;-73
2023/08/20 09:03:24;;;;;;;2.47;0.50;;;;;;;37.10;26.92;102352.91;5076472;28;20028;-72
2023/08/20 09:05:55;;;;;;;3.03;0.60;;;;;;;35.37;29.82;102353.16;5076480;28;20027;-72
2023/08/20 09:08:21;;;;;;;1.40;0.50;;;;;;;37.96;27.75;102346.88;5087967;28;20028;-72
2023/08/20 09:10:50;;;;;;;1.27;0.50;;;;;;;36.97;28.71;102351.44;5079334;28;20051;-72
2023/08/20 09:13:15;;;;;;;2.28;0.60;;;;;;;38.88;25.98;102351.75;5091768;28;20027;-72
2023/08/20 09:15:41;;;;;;;2.17;0.88;;;;;;;36.31;28.28;102353.31;5081959;28;20032;-72
2023/08/20 09:18:09;;;;;;;1.55;0.73;;;;;;;38.33;27.11;102356.66;5072531;28;20024;-72
2023/08/20 09:20:38;;;;;;;1.67;0.63;;;;;;;37.11;27.38;102351.88;5077399;28;20111;-72
2023/08/20 09:23:10;;;;;;;2.95;0.75;;;;;;;38.71;25.25;102363.66;5090664;28;20027;-72
2023/08/20 09:25:35;;;;;;;2.15;0.38;;;;;;;38.29;25.33;102358.00;5085618;28;20029;-72
2023/08/20 09:28:04;;;;;;;2.78;0.70;;;;;;;37.06;26.37;102351.50;5073222;28;20043;-72
2023/08/20 09:30:30;;;;;;;1.15;0.50;;;;;;;36.56;27.63;102356.38;5073072;28;20025;-72
2023/08/20 09:33:10;;;;;;;2.50;0.47;;;;;;;36.60;28.27;102352.34;5089446;28;20043;-72
2023/08/20 09:35:35;;;;;;;2.03;0.65;;;;;;;38.02;25.88;102351.66;5073013;28;20031;-73
2023/08/20 09:38:03;;;;;;;2.65;0.60;;;;;;;37.69;25.68;102356.88;5072834;28;20029;-73
2023/08/20 09:40:29;;;;;;;0.82;0.43;;;;;;;36.15;27.29;102355.78;5090491;28;20032;-72
2023/08/20 09:42:56;;;;;;;4.03;0.50;;;;;;;36.19;28.55;102357.22;5091846;28;20051;-72
2023/08/20 09:45:23;;;;;;;2.47;0.68;;;;;;;35.02;29.67;102357.22;5089077;28;20055;-72
2023/08/20 09:47:54;;;;;;;4.53;0.50;;;;;;;36.09;27.62;102361.81;5070683;28;20025;-71
2023/08/20 09:50:21;;;;;;;3.88;0.70;;;;;;;34.97;28.89;102360.38;5071444;28;20377;-72
2023/08/20 09:53:18;;;;;;;2.55;0.60;;;;;;;34.38;30.04;102359.28;5079175;28;20031;-71
2023/08/20 09:55:46;;;;;;;3.78;0.75;;;;;;;34.97;30.18;102357.66;5078178;28;20027;-71
2023/08/20 09:58:11;;;;;;;3.03;0.60;;;;;;;34.30;30.30;102366.22;5088241;28;20067;-71
2023/08/20 10:00:38;;;;;;;4.80;0.90;;;;;;;33.35;30.73;102371.66;5089157;28;20110;-71
2023/08/20 10:03:03;;;;;;;1.27;0.60;;;;;;;33.47;31.61;102371.47;5089898;28;20062;-71
2023/08/20 10:05:31;;;;;;;1.58;0.50;;;;;;;34.00;31.17;102367.03;5084600;28;20052;-71
2023/08/20 10:07:58;;;;;;;2.28;0.70;;;;;;;33.87;31.89;102361.81;5084340;28;20561;-72
2023/08/20 10:10:25;;;;;;;3.55;0.70;;;;;;;33.77;32.28;102366.28;5091285;28;20048;-72
2023/08/20 10:12:51;;;;;;;1.70;0.38;;;;;;;32.79;33.29;102366.16;5074249;28;20020;-71
2023/08/20 10:15:17;;;;;;;2.97;0.40;;;;;;;33.49;32.55;102358.63;5070508;28;20106;-72
2023/08/20 10:17:45;;;;;;;3.22;0.95;;;;;;;34.34;31.46;102360.56;5076230;28;20024;-71
2023/08/20 10:20:14;;;;;;;0.60;0.50;;;;;;;33.04;34.07;102352.47;5083526;28;20036;-71
2023/08/20 10:22:41;;;;;;;1.92;0.60;;;;;;;33.22;33.04;102359.09;5069015;28;20032;-69
2023/08/20 10:25:09;;;;;;;3.53;0.68;;;;;;;33.06;33.24;102351.38;5072628;28;20051;-69
2023/08/20 10:27:44;;;;;;;2.47;0.65;;;;;;;33.42;32.95;102353.88;5091569;28;20036;-68
2023/08/20 10:30:21;;;;;;;2.45;0.50;;;;;;;32.57;34.93;102349.94;5073520;28;20378;-69
2023/08/20 10:32:52;;;;;;;1.42;0.60;;;;;;;32.41;34.67;102356.56;5086452;28;20038;-69
2023/08/20 10:35:39;;;;;;;3.28;0.80;;;;;;;33.35;34.15;102355.38;5081661;28;20031;-68
2023/08/20 10:38:08;;;;;;;1.20;0.40;;;;;;;33.52;33.12;102357.50;5084343;28;20476;-69
2023/08/20 10:40:56;;;;;;;3.38;0.40;;;;;;;33.19;32.25;102356.63;5084422;28;20032;-69
2023/08/20 10:43:30;;;;;;;3.58;0.52;;;;;;;32.84;34.05;102354.97;5077780;28;20369;-69
2023/08/20 10:46:17;;;;;;;2.53;0.80;;;;;;;32.28;34.17;102362.09;5072758;28;20036;-68
2023/08/20 10:48:48;;;;;;;6.35;0.98;;;;;;;33.37;33.66;102356.09;5071758;28;20024;-69
2023/08/20 10:51:23;;;;;;;0.70;0.43;;;;;;;33.82;33.13;102358.63;5068760;28;20029;-68
2023/08/20 10:54:04;;;;;;;2.88;0.73;;;;;;;33.17;33.58;102353.19;5069693;28;20032;-69
2023/08/20 10:56:46;;;;;;;2.72;0.73;;;;;;;33.43;33.20;102345.63;5083650;28;20051;-68
2023/08/20 10:59:23;;;;;;;1.73;0.40;;;;;;;33.11;33.55;102348.25;5070077;28;20087;-69
2023/08/20 11:01:58;;;;;;;4.75;0.80;;;;;;;32.18;34.50;102349.41;5092862;28;20082;-68
2023/08/20 11:04:27;;;;;;;6.05;1.13;;;;;;;32.60;34.63;102353.25;5069428;28;20039;-69
2023/08/20 11:06:54;;;;;;;4.22;0.57;;;;;;;32.98;33.78;102349.28;5072332;28;20032;-68
2023/08/20 11:09:21;;;;;;;1.73;0.50;;;;;;;33.38;32.96;102349.69;5080339;28;20119;-68
2023/08/20 11:11:47;;;;;;;1.77;0.50;;;;;;;33.55;32.60;102349.16;5080555;28;20400;-68
2023/08/20 11:14:14;;;;;;;1.75;0.75;;;;;;;33.90;32.77;102345.28;5090302;28;20020;-68
2023/08/20 11:16:41;;;;;;;1.88;0.73;;;;;;;32.95;33.40;102345.97;5081392;28;20430;-69
2023/08/20 11:19:09;;;;;;;4.53;0.68;;;;;;;33.63;32.38;102354.78;5089084;28;20443;-69
2023/08/20 11:21:37;;;;;;;2.05;0.70;;;;;;;33.27;32.85;102348.75;5081833;28;20036;-68
2023/08/20 11:24:03;;;;;;;1.55;0.60;;;;;;;33.72;31.50;102347.69;5069151;28;20115;-69